sensor_id;sensor_type;location;lat;lon;timestamp;temperature;humidity
62581;DHT22;48640;48.770;9.148;2022-12-20T00:01:23;6.80;97.90
62581;DHT22;48640;48.770;9.148;2022-12-20T00:03:52;6.80;98.40
62581;DHT22;48640;48.770;9.148;2022-12-20T00:06:20;6.80;98.10
62581;DHT22;48640;48.770;9.148;2022-12-20T00:08:52;6.70;98.10
62581;DHT22;48640;48.770;9.148;2022-12-20T00:11:19;6.70;98.20
62581;DHT22;48640;48.770;9.148;2022-12-20T00:13:47;6.60;98.30
62581;DHT22;48640;48.770;9.148;2022-12-20T00:16:16;6.60;98.60
62581;DHT22;48640;48.770;9.148;2022-12-20T00:18:43;6.70;98.50
62581;DHT22;48640;48.770;9.148;2022-12-20T00:21:13;6.60;98.40
62581;DHT22;48640;48.770;9.148;2022-12-20T00:23:40;6.70;98.40
62581;DHT22;48640;48.770;9.148;2022-12-20T00:26:09;6.60;98.30
62581;DHT22;48640;48.770;9.148;2022-12-20T00:28:36;6.50;98.40
62581;DHT22;48640;48.770;9.148;2022-12-20T00:31:05;6.30;98.70
62581;DHT22;48640;48.770;9.148;2022-12-20T00:33:34;6.20;99.00
62581;DHT22;48640;48.770;9.148;2022-12-20T00:36:00;6.20;99.20
62581;DHT22;48640;48.770;9.148;2022-12-20T00:38:27;6.20;99.20
62581;DHT22;48640;48.770;9.148;2022-12-20T00:41:01;6.10;99.30
62581;DHT22;48640;48.770;9.148;2022-12-20T00:43:29;6.10;99.20
62581;DHT22;48640;48.770;9.148;2022-12-20T00:45:56;6.00;99.60
62581;DHT22;48640;48.770;9.148;2022-12-20T00:48:24;6.00;99.80
62581;DHT22;48640;48.770;9.148;2022-12-20T00:50:52;6.10;99.70
62581;DHT22;48640;48.770;9.148;2022-12-20T00:53:23;6.10;99.80
62581;DHT22;48640;48.770;9.148;2022-12-20T00:55:50;6.20;99.60
62581;DHT22;48640;48.770;9.148;2022-12-20T00:58:16;6.20;99.50
62581;DHT22;48640;48.770;9.148;2022-12-20T01:00:43;6.20;99.40
62581;DHT22;48640;48.770;9.148;2022-12-20T01:03:10;6.30;99.20
62581;DHT22;48640;48.770;9.148;2022-12-20T01:05:38;6.40;99.00
62581;DHT22;48640;48.770;9.148;2022-12-20T01:08:05;6.50;98.70
62581;DHT22;48640;48.770;9.148;2022-12-20T01:10:32;6.60;98.60
62581;DHT22;48640;48.770;9.148;2022-12-20T01:12:59;6.60;98.50
62581;DHT22;48640;48.770;9.148;2022-12-20T01:15:26;6.60;98.40
62581;DHT22;48640;48.770;9.148;2022-12-20T01:17:53;6.60;98.10
62581;DHT22;48640;48.770;9.148;2022-12-20T01:20:20;6.60;98.00
62581;DHT22;48640;48.770;9.148;2022-12-20T01:22:48;6.70;97.70
62581;DHT22;48640;48.770;9.148;2022-12-20T01:25:15;6.60;97.60
62581;DHT22;48640;48.770;9.148;2022-12-20T01:27:42;6.60;97.70
62581;DHT22;48640;48.770;9.148;2022-12-20T01:30:10;6.60;97.50
62581;DHT22;48640;48.770;9.148;2022-12-20T01:32:37;6.40;97.70
62581;DHT22;48640;48.770;9.148;2022-12-20T01:35:04;6.50;98.10
62581;DHT22;48640;48.770;9.148;2022-12-20T01:37:31;6.40;98.00
62581;DHT22;48640;48.770;9.148;2022-12-20T01:39:59;6.50;98.10
62581;DHT22;48640;48.770;9.148;2022-12-20T01:42:26;6.50;98.10
62581;DHT22;48640;48.770;9.148;2022-12-20T01:44:57;6.30;97.80
62581;DHT22;48640;48.770;9.148;2022-12-20T01:47:25;6.20;98.20
62581;DHT22;48640;48.770;9.148;2022-12-20T01:49:53;6.30;98.60
62581;DHT22;48640;48.770;9.148;2022-12-20T01:52:26;6.30;98.60
62581;DHT22;48640;48.770;9.148;2022-12-20T01:54:55;6.30;98.60
62581;DHT22;48640;48.770;9.148;2022-12-20T01:57:30;6.30;98.60
62581;DHT22;48640;48.770;9.148;2022-12-20T01:59:59;6.30;98.70
62581;DHT22;48640;48.770;9.148;2022-12-20T02:02:26;6.30;98.60
62581;DHT22;48640;48.770;9.148;2022-12-20T02:04:53;6.40;98.60
62581;DHT22;48640;48.770;9.148;2022-12-20T02:07:23;6.50;98.40
62581;DHT22;48640;48.770;9.148;2022-12-20T02:09:52;6.50;98.30
62581;DHT22;48640;48.770;9.148;2022-12-20T02:12:22;6.50;98.30
62581;DHT22;48640;48.770;9.148;2022-12-20T02:15:02;6.50;98.30
62581;DHT22;48640;48.770;9.148;2022-12-20T02:17:43;6.50;98.40
62581;DHT22;48640;48.770;9.148;2022-12-20T02:20:33;6.50;98.20
62581;DHT22;48640;48.770;9.148;2022-12-20T02:23:21;6.50;97.90
62581;DHT22;48640;48.770;9.148;2022-12-20T02:26:03;6.40;97.80
62581;DHT22;48640;48.770;9.148;2022-12-20T02:28:51;6.30;97.90
62581;DHT22;48640;48.770;9.148;2022-12-20T02:31:27;6.40;98.10
62581;DHT22;48640;48.770;9.148;2022-12-20T02:33:56;6.30;98.10
62581;DHT22;48640;48.770;9.148;2022-12-20T02:36:24;6.30;98.20
62581;DHT22;48640;48.770;9.148;2022-12-20T02:38:51;6.30;98.20
62581;DHT22;48640;48.770;9.148;2022-12-20T02:41:20;6.20;98.30
62581;DHT22;48640;48.770;9.148;2022-12-20T02:43:50;6.20;98.30
62581;DHT22;48640;48.770;9.148;2022-12-20T02:46:37;6.10;98.50
62581;DHT22;48640;48.770;9.148;2022-12-20T02:49:08;6.10;98.50
62581;DHT22;48640;48.770;9.148;2022-12-20T02:51:36;6.10;98.60
62581;DHT22;48640;48.770;9.148;2022-12-20T02:54:03;6.00;98.70
62581;DHT22;48640;48.770;9.148;2022-12-20T02:56:33;6.00;98.70
62581;DHT22;48640;48.770;9.148;2022-12-20T02:59:07;6.00;98.80
62581;DHT22;48640;48.770;9.148;2022-12-20T03:01:39;6.00;98.90
62581;DHT22;48640;48.770;9.148;2022-12-20T03:04:07;6.00;99.10
62581;DHT22;48640;48.770;9.148;2022-12-20T03:06:34;6.00;99.10
62581;DHT22;48640;48.770;9.148;2022-12-20T03:09:01;6.00;99.00
62581;DHT22;48640;48.770;9.148;2022-12-20T03:11:28;6.10;99.10
62581;DHT22;48640;48.770;9.148;2022-12-20T03:13:54;6.10;99.10
62581;DHT22;48640;48.770;9.148;2022-12-20T03:16:21;6.20;99.00
62581;DHT22;48640;48.770;9.148;2022-12-20T03:18:49;6.20;99.00
62581;DHT22;48640;48.770;9.148;2022-12-20T03:21:16;6.30;98.80
62581;DHT22;48640;48.770;9.148;2022-12-20T03:23:43;6.30;98.70
62581;DHT22;48640;48.770;9.148;2022-12-20T03:26:09;6.30;98.80
62581;DHT22;48640;48.770;9.148;2022-12-20T03:28:36;6.40;99.00
62581;DHT22;48640;48.770;9.148;2022-12-20T03:31:03;6.40;99.00
62581;DHT22;48640;48.770;9.148;2022-12-20T03:33:30;6.50;99.00
62581;DHT22;48640;48.770;9.148;2022-12-20T03:35:58;6.60;98.90
62581;DHT22;48640;48.770;9.148;2022-12-20T03:38:25;6.70;98.80
62581;DHT22;48640;48.770;9.148;2022-12-20T03:40:51;6.70;98.60
62581;DHT22;48640;48.770;9.148;2022-12-20T03:43:18;6.80;98.50
62581;DHT22;48640;48.770;9.148;2022-12-20T03:45:45;6.90;98.40
62581;DHT22;48640;48.770;9.148;2022-12-20T03:48:12;6.90;98.30
62581;DHT22;48640;48.770;9.148;2022-12-20T03:50:40;6.90;98.10
62581;DHT22;48640;48.770;9.148;2022-12-20T03:53:08;7.00;98.00
62581;DHT22;48640;48.770;9.148;2022-12-20T03:55:35;7.00;97.70
62581;DHT22;48640;48.770;9.148;2022-12-20T03:58:02;7.00;97.70
62581;DHT22;48640;48.770;9.148;2022-12-20T04:00:29;7.00;97.60
62581;DHT22;48640;48.770;9.148;2022-12-20T04:02:56;7.00;97.70
62581;DHT22;48640;48.770;9.148;2022-12-20T04:05:23;7.00;97.80
62581;DHT22;48640;48.770;9.148;2022-12-20T04:07:50;7.00;97.80
62581;DHT22;48640;48.770;9.148;2022-12-20T04:10:18;7.10;97.60
62581;DHT22;48640;48.770;9.148;2022-12-20T04:12:45;7.10;97.50
62581;DHT22;48640;48.770;9.148;2022-12-20T04:15:12;7.10;97.50
62581;DHT22;48640;48.770;9.148;2022-12-20T04:17:38;7.20;97.50
62581;DHT22;48640;48.770;9.148;2022-12-20T04:20:06;7.20;97.40
62581;DHT22;48640;48.770;9.148;2022-12-20T04:22:44;7.20;97.50
62581;DHT22;48640;48.770;9.148;2022-12-20T04:25:11;7.10;97.50
62581;DHT22;48640;48.770;9.148;2022-12-20T04:27:39;7.20;97.40
62581;DHT22;48640;48.770;9.148;2022-12-20T04:30:07;7.20;97.40
62581;DHT22;48640;48.770;9.148;2022-12-20T04:32:34;7.30;97.30
62581;DHT22;48640;48.770;9.148;2022-12-20T04:35:01;7.30;97.20
62581;DHT22;48640;48.770;9.148;2022-12-20T04:37:29;7.20;97.20
62581;DHT22;48640;48.770;9.148;2022-12-20T04:39:56;7.20;97.20
62581;DHT22;48640;48.770;9.148;2022-12-20T04:42:23;7.20;97.30
62581;DHT22;48640;48.770;9.148;2022-12-20T04:44:51;7.10;97.30
62581;DHT22;48640;48.770;9.148;2022-12-20T04:47:18;7.10;97.30
62581;DHT22;48640;48.770;9.148;2022-12-20T04:49:45;7.00;97.50
62581;DHT22;48640;48.770;9.148;2022-12-20T04:52:12;7.10;97.40
62581;DHT22;48640;48.770;9.148;2022-12-20T04:54:56;7.10;97.40
62581;DHT22;48640;48.770;9.148;2022-12-20T04:57:23;7.20;97.30
62581;DHT22;48640;48.770;9.148;2022-12-20T04:59:51;7.20;97.30
62581;DHT22;48640;48.770;9.148;2022-12-20T05:02:18;7.40;97.30
62581;DHT22;48640;48.770;9.148;2022-12-20T05:04:45;7.30;97.20
62581;DHT22;48640;48.770;9.148;2022-12-20T05:07:12;7.40;97.10
62581;DHT22;48640;48.770;9.148;2022-12-20T05:09:39;7.40;97.00
62581;DHT22;48640;48.770;9.148;2022-12-20T05:12:07;7.40;97.00
62581;DHT22;48640;48.770;9.148;2022-12-20T05:14:34;7.50;96.90
62581;DHT22;48640;48.770;9.148;2022-12-20T05:17:02;7.60;96.80
62581;DHT22;48640;48.770;9.148;2022-12-20T05:19:29;7.60;96.80
62581;DHT22;48640;48.770;9.148;2022-12-20T05:21:56;7.60;96.70
62581;DHT22;48640;48.770;9.148;2022-12-20T05:24:40;7.60;96.80
62581;DHT22;48640;48.770;9.148;2022-12-20T05:27:24;7.60;96.70
62581;DHT22;48640;48.770;9.148;2022-12-20T05:29:51;7.70;96.60
62581;DHT22;48640;48.770;9.148;2022-12-20T05:32:26;7.70;96.60
62581;DHT22;48640;48.770;9.148;2022-12-20T05:34:53;7.70;96.60
62581;DHT22;48640;48.770;9.148;2022-12-20T05:37:20;7.70;96.60
62581;DHT22;48640;48.770;9.148;2022-12-20T05:39:47;7.70;96.60
62581;DHT22;48640;48.770;9.148;2022-12-20T05:42:14;7.70;96.50
62581;DHT22;48640;48.770;9.148;2022-12-20T05:44:41;7.70;96.50
62581;DHT22;48640;48.770;9.148;2022-12-20T05:47:08;7.70;96.50
62581;DHT22;48640;48.770;9.148;2022-12-20T05:49:36;7.70;96.50
62581;DHT22;48640;48.770;9.148;2022-12-20T05:52:03;7.70;96.50
62581;DHT22;48640;48.770;9.148;2022-12-20T05:54:30;7.70;96.50
62581;DHT22;48640;48.770;9.148;2022-12-20T05:56:57;7.60;96.60
62581;DHT22;48640;48.770;9.148;2022-12-20T05:59:24;7.60;96.70
62581;DHT22;48640;48.770;9.148;2022-12-20T06:01:50;7.50;96.80
62581;DHT22;48640;48.770;9.148;2022-12-20T06:04:18;7.50;96.80
62581;DHT22;48640;48.770;9.148;2022-12-20T06:06:46;7.50;96.70
62581;DHT22;48640;48.770;9.148;2022-12-20T06:09:13;7.50;96.80
62581;DHT22;48640;48.770;9.148;2022-12-20T06:11:40;7.50;96.80
62581;DHT22;48640;48.770;9.148;2022-12-20T06:14:07;7.50;97.00
62581;DHT22;48640;48.770;9.148;2022-12-20T06:16:33;7.40;96.90
62581;DHT22;48640;48.770;9.148;2022-12-20T06:19:01;7.60;96.90
62581;DHT22;48640;48.770;9.148;2022-12-20T06:21:28;7.60;96.90
62581;DHT22;48640;48.770;9.148;2022-12-20T06:23:56;7.70;96.70
62581;DHT22;48640;48.770;9.148;2022-12-20T06:26:22;7.70;96.50
62581;DHT22;48640;48.770;9.148;2022-12-20T06:28:50;7.60;96.50
62581;DHT22;48640;48.770;9.148;2022-12-20T06:31:19;7.60;96.60
62581;DHT22;48640;48.770;9.148;2022-12-20T06:33:46;7.70;96.60
62581;DHT22;48640;48.770;9.148;2022-12-20T06:36:13;7.70;96.50
62581;DHT22;48640;48.770;9.148;2022-12-20T06:38:39;7.90;96.40
62581;DHT22;48640;48.770;9.148;2022-12-20T06:41:08;7.80;96.20
62581;DHT22;48640;48.770;9.148;2022-12-20T06:43:34;7.80;96.10
62581;DHT22;48640;48.770;9.148;2022-12-20T06:46:01;7.80;96.10
62581;DHT22;48640;48.770;9.148;2022-12-20T06:48:28;7.80;96.20
62581;DHT22;48640;48.770;9.148;2022-12-20T06:50:55;7.80;96.30
62581;DHT22;48640;48.770;9.148;2022-12-20T06:53:22;7.70;96.30
62581;DHT22;48640;48.770;9.148;2022-12-20T06:55:49;7.80;96.30
62581;DHT22;48640;48.770;9.148;2022-12-20T06:58:17;7.80;96.30
62581;DHT22;48640;48.770;9.148;2022-12-20T07:00:44;7.80;96.30
62581;DHT22;48640;48.770;9.148;2022-12-20T07:03:11;7.90;96.20
62581;DHT22;48640;48.770;9.148;2022-12-20T07:05:38;8.00;96.10
62581;DHT22;48640;48.770;9.148;2022-12-20T07:08:05;8.00;96.00
62581;DHT22;48640;48.770;9.148;2022-12-20T07:10:33;8.00;96.00
62581;DHT22;48640;48.770;9.148;2022-12-20T07:13:00;8.00;96.00
62581;DHT22;48640;48.770;9.148;2022-12-20T07:15:28;8.10;96.00
62581;DHT22;48640;48.770;9.148;2022-12-20T07:17:55;8.10;95.90
62581;DHT22;48640;48.770;9.148;2022-12-20T07:20:22;8.10;95.90
62581;DHT22;48640;48.770;9.148;2022-12-20T07:22:49;8.10;95.80
62581;DHT22;48640;48.770;9.148;2022-12-20T07:25:16;8.30;95.70
62581;DHT22;48640;48.770;9.148;2022-12-20T07:27:45;8.20;95.60
62581;DHT22;48640;48.770;9.148;2022-12-20T07:30:13;8.30;95.70
62581;DHT22;48640;48.770;9.148;2022-12-20T07:32:41;8.30;95.60
62581;DHT22;48640;48.770;9.148;2022-12-20T07:35:09;8.30;95.40
62581;DHT22;48640;48.770;9.148;2022-12-20T07:37:36;8.40;95.40
62581;DHT22;48640;48.770;9.148;2022-12-20T07:40:04;8.40;95.20
62581;DHT22;48640;48.770;9.148;2022-12-20T07:42:31;8.50;95.20
62581;DHT22;48640;48.770;9.148;2022-12-20T07:44:57;8.50;95.10
62581;DHT22;48640;48.770;9.148;2022-12-20T07:47:24;8.60;95.10
62581;DHT22;48640;48.770;9.148;2022-12-20T07:49:52;8.60;95.00
62581;DHT22;48640;48.770;9.148;2022-12-20T07:52:21;8.70;95.00
62581;DHT22;48640;48.770;9.148;2022-12-20T07:54:53;8.70;95.00
62581;DHT22;48640;48.770;9.148;2022-12-20T07:57:24;8.70;95.00
62581;DHT22;48640;48.770;9.148;2022-12-20T07:59:56;8.80;94.80
62581;DHT22;48640;48.770;9.148;2022-12-20T08:02:35;8.90;94.70
62581;DHT22;48640;48.770;9.148;2022-12-20T08:05:05;8.90;94.70
62581;DHT22;48640;48.770;9.148;2022-12-20T08:07:33;9.00;94.50
62581;DHT22;48640;48.770;9.148;2022-12-20T08:10:03;9.00;94.50
62581;DHT22;48640;48.770;9.148;2022-12-20T08:12:32;9.00;94.40
62581;DHT22;48640;48.770;9.148;2022-12-20T08:14:59;9.10;94.30
62581;DHT22;48640;48.770;9.148;2022-12-20T08:17:25;9.10;94.20
62581;DHT22;48640;48.770;9.148;2022-12-20T08:19:52;9.10;94.10
62581;DHT22;48640;48.770;9.148;2022-12-20T08:22:20;9.20;93.90
62581;DHT22;48640;48.770;9.148;2022-12-20T08:24:47;9.20;93.80
62581;DHT22;48640;48.770;9.148;2022-12-20T08:27:14;9.20;93.80
62581;DHT22;48640;48.770;9.148;2022-12-20T08:29:41;9.20;93.80
62581;DHT22;48640;48.770;9.148;2022-12-20T08:32:08;9.30;93.70
62581;DHT22;48640;48.770;9.148;2022-12-20T08:34:35;9.30;93.60
62581;DHT22;48640;48.770;9.148;2022-12-20T08:37:02;9.30;93.50
62581;DHT22;48640;48.770;9.148;2022-12-20T08:39:30;9.40;93.70
62581;DHT22;48640;48.770;9.148;2022-12-20T08:41:57;9.30;93.50
62581;DHT22;48640;48.770;9.148;2022-12-20T08:44:24;9.40;93.50
62581;DHT22;48640;48.770;9.148;2022-12-20T08:46:51;9.40;93.40
62581;DHT22;48640;48.770;9.148;2022-12-20T08:49:18;9.40;93.40
62581;DHT22;48640;48.770;9.148;2022-12-20T08:51:45;9.50;93.30
62581;DHT22;48640;48.770;9.148;2022-12-20T08:54:12;9.50;93.20
62581;DHT22;48640;48.770;9.148;2022-12-20T08:56:40;9.60;93.20
62581;DHT22;48640;48.770;9.148;2022-12-20T08:59:07;9.60;93.00
62581;DHT22;48640;48.770;9.148;2022-12-20T09:01:34;9.60;92.90
62581;DHT22;48640;48.770;9.148;2022-12-20T09:04:01;9.70;92.90
62581;DHT22;48640;48.770;9.148;2022-12-20T09:06:28;9.70;92.90
62581;DHT22;48640;48.770;9.148;2022-12-20T09:08:55;9.70;92.90
62581;DHT22;48640;48.770;9.148;2022-12-20T09:11:23;9.70;92.80
62581;DHT22;48640;48.770;9.148;2022-12-20T09:13:54;9.50;92.90
62581;DHT22;48640;48.770;9.148;2022-12-20T09:16:23;9.60;93.00
62581;DHT22;48640;48.770;9.148;2022-12-20T09:18:51;9.50;93.00
62581;DHT22;48640;48.770;9.148;2022-12-20T09:21:19;9.50;93.20
62581;DHT22;48640;48.770;9.148;2022-12-20T09:23:46;9.50;93.10
62581;DHT22;48640;48.770;9.148;2022-12-20T09:26:14;9.50;93.20
62581;DHT22;48640;48.770;9.148;2022-12-20T09:28:42;9.50;93.00
62581;DHT22;48640;48.770;9.148;2022-12-20T09:31:12;9.60;93.00
62581;DHT22;48640;48.770;9.148;2022-12-20T09:33:39;9.60;92.90
62581;DHT22;48640;48.770;9.148;2022-12-20T09:36:10;9.50;93.00
62581;DHT22;48640;48.770;9.148;2022-12-20T09:38:37;9.60;93.00
62581;DHT22;48640;48.770;9.148;2022-12-20T09:41:05;9.60;92.90
62581;DHT22;48640;48.770;9.148;2022-12-20T09:43:33;9.60;92.90
62581;DHT22;48640;48.770;9.148;2022-12-20T09:46:01;9.70;92.80
62581;DHT22;48640;48.770;9.148;2022-12-20T09:48:32;9.80;92.80
62581;DHT22;48640;48.770;9.148;2022-12-20T09:51:09;9.80;92.50
62581;DHT22;48640;48.770;9.148;2022-12-20T09:53:45;9.80;92.40
62581;DHT22;48640;48.770;9.148;2022-12-20T09:56:23;9.80;92.40
62581;DHT22;48640;48.770;9.148;2022-12-20T09:58:58;9.80;92.50
62581;DHT22;48640;48.770;9.148;2022-12-20T10:01:27;9.90;92.50
62581;DHT22;48640;48.770;9.148;2022-12-20T10:03:57;9.90;92.30
62581;DHT22;48640;48.770;9.148;2022-12-20T10:06:34;9.90;92.40
62581;DHT22;48640;48.770;9.148;2022-12-20T10:09:04;9.90;92.60
62581;DHT22;48640;48.770;9.148;2022-12-20T10:11:44;9.80;92.50
62581;DHT22;48640;48.770;9.148;2022-12-20T10:14:27;9.70;92.80
62581;DHT22;48640;48.770;9.148;2022-12-20T10:17:00;9.80;92.90
62581;DHT22;48640;48.770;9.148;2022-12-20T10:19:45;9.90;92.60
62581;DHT22;48640;48.770;9.148;2022-12-20T10:22:19;10.00;92.00
62581;DHT22;48640;48.770;9.148;2022-12-20T10:24:54;10.00;91.70
62581;DHT22;48640;48.770;9.148;2022-12-20T10:27:24;10.10;91.70
62581;DHT22;48640;48.770;9.148;2022-12-20T10:29:51;10.20;91.50
62581;DHT22;48640;48.770;9.148;2022-12-20T10:32:20;10.30;91.40
62581;DHT22;48640;48.770;9.148;2022-12-20T10:34:54;10.40;91.30
62581;DHT22;48640;48.770;9.148;2022-12-20T10:37:22;10.50;91.10
62581;DHT22;48640;48.770;9.148;2022-12-20T10:39:50;10.40;91.00
62581;DHT22;48640;48.770;9.148;2022-12-20T10:42:35;10.40;91.00
62581;DHT22;48640;48.770;9.148;2022-12-20T10:45:02;10.40;90.90
62581;DHT22;48640;48.770;9.148;2022-12-20T10:47:37;10.40;90.90
62581;DHT22;48640;48.770;9.148;2022-12-20T10:50:13;10.40;90.90
62581;DHT22;48640;48.770;9.148;2022-12-20T10:52:41;10.40;90.80
62581;DHT22;48640;48.770;9.148;2022-12-20T10:55:34;10.40;90.90
62581;DHT22;48640;48.770;9.148;2022-12-20T10:58:03;10.40;90.80
62581;DHT22;48640;48.770;9.148;2022-12-20T11:00:32;10.50;91.10
62581;DHT22;48640;48.770;9.148;2022-12-20T11:03:08;10.40;90.70
62581;DHT22;48640;48.770;9.148;2022-12-20T11:05:37;10.40;90.60
62581;DHT22;48640;48.770;9.148;2022-12-20T11:08:14;10.40;90.80
62581;DHT22;48640;48.770;9.148;2022-12-20T11:10:42;10.50;90.60
62581;DHT22;48640;48.770;9.148;2022-12-20T11:13:20;10.50;90.60
62581;DHT22;48640;48.770;9.148;2022-12-20T11:15:48;10.50;90.40
62581;DHT22;48640;48.770;9.148;2022-12-20T11:18:25;10.60;90.30
62581;DHT22;48640;48.770;9.148;2022-12-20T11:21:07;10.60;90.30
62581;DHT22;48640;48.770;9.148;2022-12-20T11:23:40;10.60;90.30
62581;DHT22;48640;48.770;9.148;2022-12-20T11:26:20;10.60;90.20
62581;DHT22;48640;48.770;9.148;2022-12-20T11:29:10;10.70;90.20
62581;DHT22;48640;48.770;9.148;2022-12-20T11:31:50;10.70;90.10
62581;DHT22;48640;48.770;9.148;2022-12-20T11:34:26;10.70;90.10
62581;DHT22;48640;48.770;9.148;2022-12-20T11:37:17;10.70;89.90
62581;DHT22;48640;48.770;9.148;2022-12-20T11:39:55;10.70;90.00
62581;DHT22;48640;48.770;9.148;2022-12-20T11:42:36;10.70;90.00
62581;DHT22;48640;48.770;9.148;2022-12-20T11:45:11;10.70;90.00
62581;DHT22;48640;48.770;9.148;2022-12-20T11:47:56;10.70;90.00
62581;DHT22;48640;48.770;9.148;2022-12-20T11:53:31;10.50;90.30
62581;DHT22;48640;48.770;9.148;2022-12-20T11:56:02;10.50;90.40
62581;DHT22;48640;48.770;9.148;2022-12-20T11:58:40;10.30;90.60
62581;DHT22;48640;48.770;9.148;2022-12-20T12:01:13;10.40;90.90
62581;DHT22;48640;48.770;9.148;2022-12-20T12:03:45;10.40;90.90
62581;DHT22;48640;48.770;9.148;2022-12-20T12:06:22;10.40;90.50
62581;DHT22;48640;48.770;9.148;2022-12-20T12:08:58;10.50;90.60
62581;DHT22;48640;48.770;9.148;2022-12-20T12:11:30;10.60;90.40
62581;DHT22;48640;48.770;9.148;2022-12-20T12:13:57;10.50;90.40
62581;DHT22;48640;48.770;9.148;2022-12-20T12:16:27;10.60;90.30
62581;DHT22;48640;48.770;9.148;2022-12-20T12:18:57;10.60;90.30
62581;DHT22;48640;48.770;9.148;2022-12-20T12:21:26;10.60;90.50
62581;DHT22;48640;48.770;9.148;2022-12-20T12:24:01;10.50;90.30
62581;DHT22;48640;48.770;9.148;2022-12-20T12:26:32;10.60;90.20
62581;DHT22;48640;48.770;9.148;2022-12-20T12:29:02;10.60;90.00
62581;DHT22;48640;48.770;9.148;2022-12-20T12:31:36;10.70;90.10
62581;DHT22;48640;48.770;9.148;2022-12-20T12:34:10;10.70;90.10
62581;DHT22;48640;48.770;9.148;2022-12-20T12:37:02;10.70;89.90
62581;DHT22;48640;48.770;9.148;2022-12-20T12:39:57;10.70;90.00
62581;DHT22;48640;48.770;9.148;2022-12-20T12:45:33;10.80;89.70
62581;DHT22;48640;48.770;9.148;2022-12-20T12:48:06;10.90;89.20
62581;DHT22;48640;48.770;9.148;2022-12-20T12:50:36;11.00;89.00
62581;DHT22;48640;48.770;9.148;2022-12-20T12:53:05;11.00;88.60
62581;DHT22;48640;48.770;9.148;2022-12-20T12:55:44;11.00;88.70
62581;DHT22;48640;48.770;9.148;2022-12-20T13:00:56;11.00;88.30
62581;DHT22;48640;48.770;9.148;2022-12-20T13:06:42;11.00;88.20
62581;DHT22;48640;48.770;9.148;2022-12-20T13:09:16;11.00;88.00
62581;DHT22;48640;48.770;9.148;2022-12-20T13:11:45;11.00;87.90
62581;DHT22;48640;48.770;9.148;2022-12-20T13:14:46;11.00;87.70
62581;DHT22;48640;48.770;9.148;2022-12-20T13:17:47;11.10;87.90
62581;DHT22;48640;48.770;9.148;2022-12-20T13:20:17;11.10;87.50
62581;DHT22;48640;48.770;9.148;2022-12-20T13:23:04;11.00;87.60
62581;DHT22;48640;48.770;9.148;2022-12-20T13:25:32;11.00;87.40
62581;DHT22;48640;48.770;9.148;2022-12-20T13:31:31;11.00;87.40
62581;DHT22;48640;48.770;9.148;2022-12-20T13:34:01;11.00;87.70
62581;DHT22;48640;48.770;9.148;2022-12-20T13:36:34;11.00;87.50
62581;DHT22;48640;48.770;9.148;2022-12-20T13:39:30;10.90;87.40
62581;DHT22;48640;48.770;9.148;2022-12-20T13:44:56;10.90;87.90
62581;DHT22;48640;48.770;9.148;2022-12-20T13:47:36;10.90;87.70
62581;DHT22;48640;48.770;9.148;2022-12-20T13:50:32;10.90;87.80
62581;DHT22;48640;48.770;9.148;2022-12-20T13:53:00;10.90;87.60
62581;DHT22;48640;48.770;9.148;2022-12-20T13:55:34;10.90;87.60
62581;DHT22;48640;48.770;9.148;2022-12-20T13:58:08;10.90;87.70
62581;DHT22;48640;48.770;9.148;2022-12-20T14:00:36;10.90;87.60
62581;DHT22;48640;48.770;9.148;2022-12-20T14:03:14;10.90;87.50
62581;DHT22;48640;48.770;9.148;2022-12-20T14:05:41;10.80;87.80
62581;DHT22;48640;48.770;9.148;2022-12-20T14:08:14;10.90;88.10
62581;DHT22;48640;48.770;9.148;2022-12-20T14:10:41;10.80;88.20
62581;DHT22;48640;48.770;9.148;2022-12-20T14:13:18;10.80;88.00
62581;DHT22;48640;48.770;9.148;2022-12-20T14:15:46;10.80;88.20
62581;DHT22;48640;48.770;9.148;2022-12-20T14:18:18;10.80;88.30
62581;DHT22;48640;48.770;9.148;2022-12-20T14:20:47;10.90;88.20
62581;DHT22;48640;48.770;9.148;2022-12-20T14:23:18;10.80;88.20
62581;DHT22;48640;48.770;9.148;2022-12-20T14:25:48;10.80;88.30
62581;DHT22;48640;48.770;9.148;2022-12-20T14:28:28;10.80;88.40
62581;DHT22;48640;48.770;9.148;2022-12-20T14:30:56;10.70;88.70
62581;DHT22;48640;48.770;9.148;2022-12-20T14:33:28;10.80;88.60
62581;DHT22;48640;48.770;9.148;2022-12-20T14:35:57;10.70;88.80
62581;DHT22;48640;48.770;9.148;2022-12-20T14:38:32;10.70;88.80
62581;DHT22;48640;48.770;9.148;2022-12-20T14:40:59;10.70;88.50
62581;DHT22;48640;48.770;9.148;2022-12-20T14:43:28;10.70;88.70
62581;DHT22;48640;48.770;9.148;2022-12-20T14:46:14;10.70;88.90
62581;DHT22;48640;48.770;9.148;2022-12-20T14:48:43;10.70;89.10
62581;DHT22;48640;48.770;9.148;2022-12-20T14:51:11;10.60;89.30
62581;DHT22;48640;48.770;9.148;2022-12-20T14:53:39;10.60;89.30
62581;DHT22;48640;48.770;9.148;2022-12-20T14:56:13;10.50;89.20
62581;DHT22;48640;48.770;9.148;2022-12-20T14:58:40;10.50;89.10
62581;DHT22;48640;48.770;9.148;2022-12-20T15:01:18;10.60;89.10
62581;DHT22;48640;48.770;9.148;2022-12-20T15:03:50;10.50;89.20
62581;DHT22;48640;48.770;9.148;2022-12-20T15:06:36;10.50;89.40
62581;DHT22;48640;48.770;9.148;2022-12-20T15:09:04;10.50;90.10
62581;DHT22;48640;48.770;9.148;2022-12-20T15:11:32;10.40;89.70
62581;DHT22;48640;48.770;9.148;2022-12-20T15:14:00;10.40;90.10
62581;DHT22;48640;48.770;9.148;2022-12-20T15:16:29;10.30;90.10
62581;DHT22;48640;48.770;9.148;2022-12-20T15:19:00;10.30;90.10
62581;DHT22;48640;48.770;9.148;2022-12-20T15:21:28;10.30;90.00
62581;DHT22;48640;48.770;9.148;2022-12-20T15:23:57;10.30;89.90
62581;DHT22;48640;48.770;9.148;2022-12-20T15:26:26;10.30;90.00
62581;DHT22;48640;48.770;9.148;2022-12-20T15:28:53;10.40;89.90
62581;DHT22;48640;48.770;9.148;2022-12-20T15:31:21;10.40;89.50
62581;DHT22;48640;48.770;9.148;2022-12-20T15:33:50;10.40;89.40
62581;DHT22;48640;48.770;9.148;2022-12-20T15:36:21;10.40;89.30
62581;DHT22;48640;48.770;9.148;2022-12-20T15:38:49;10.40;89.50
62581;DHT22;48640;48.770;9.148;2022-12-20T15:41:19;10.40;89.20
62581;DHT22;48640;48.770;9.148;2022-12-20T15:43:49;10.40;89.30
62581;DHT22;48640;48.770;9.148;2022-12-20T15:46:17;10.50;89.20
62581;DHT22;48640;48.770;9.148;2022-12-20T15:48:43;10.40;89.00
62581;DHT22;48640;48.770;9.148;2022-12-20T15:51:15;10.40;89.00
62581;DHT22;48640;48.770;9.148;2022-12-20T15:53:44;10.40;89.30
62581;DHT22;48640;48.770;9.148;2022-12-20T15:56:16;10.40;89.50
62581;DHT22;48640;48.770;9.148;2022-12-20T15:58:43;10.40;89.60
62581;DHT22;48640;48.770;9.148;2022-12-20T16:01:13;10.40;89.60
62581;DHT22;48640;48.770;9.148;2022-12-20T16:03:41;10.40;89.50
62581;DHT22;48640;48.770;9.148;2022-12-20T16:06:09;10.40;89.60
62581;DHT22;48640;48.770;9.148;2022-12-20T16:08:37;10.40;89.60
62581;DHT22;48640;48.770;9.148;2022-12-20T16:11:06;10.40;89.30
62581;DHT22;48640;48.770;9.148;2022-12-20T16:13:39;10.40;89.30
62581;DHT22;48640;48.770;9.148;2022-12-20T16:16:07;10.40;89.60
62581;DHT22;48640;48.770;9.148;2022-12-20T16:18:34;10.40;89.60